sensor_id;sensor_type;location;lat;lon;timestamp;pressure;altitude;pressure_sealevel;temperature;humidity
66668;BME280;57205;51.438;-2.006;2024-03-25T10:49:27;99160.81;;;12.65;100.00
66668;BME280;57205;51.438;-2.006;2024-03-25T10:51:58;99155.91;;;12.84;100.00
66668;BME280;57205;51.438;-2.006;2024-03-25T10:54:26;99144.88;;;12.86;100.00
66668;BME280;57205;51.438;-2.006;2024-03-25T10:56:52;99151.66;;;12.92;100.00
66668;BME280;57205;51.438;-2.006;2024-03-25T10:59:18;99152.75;;;12.73;100.00
66668;BME280;57205;51.438;-2.006;2024-03-25T11:01:45;99134.25;;;12.63;100.00
66668;BME280;57205;51.438;-2.006;2024-03-25T11:04:11;99142.25;;;12.38;100.00
66668;BME280;57205;51.438;-2.006;2024-03-25T11:06:37;99127.91;;;12.42;100.00
66668;BME280;57205;51.438;-2.006;2024-03-25T11:09:02;99125.69;;;12.36;100.00
66668;BME280;57205;51.438;-2.006;2024-03-25T11:17:52;99123.69;;;12.50;100.00
66668;BME280;57205;51.438;-2.006;2024-03-25T11:20:41;99114.06;;;12.57;100.00
66668;BME280;57205;51.438;-2.006;2024-03-25T11:23:11;99106.50;;;12.59;100.00
66668;BME280;57205;51.438;-2.006;2024-03-25T11:25:38;99113.63;;;12.72;100.00
66668;BME280;57205;51.438;-2.006;2024-03-25T11:28:04;99112.50;;;12.73;100.00
66668;BME280;57205;51.438;-2.006;2024-03-25T11:33:52;99110.66;;;12.26;100.00
66668;BME280;57205;51.438;-2.006;2024-03-25T11:36:17;99107.16;;;12.17;100.00
66668;BME280;57205;51.438;-2.006;2024-03-25T11:39:01;99112.06;;;12.15;100.00
66668;BME280;57205;51.438;-2.006;2024-03-25T11:41:45;99103.06;;;12.11;100.00
66668;BME280;57205;51.438;-2.006;2024-03-25T11:44:11;99107.75;;;11.97;100.00
66668;BME280;57205;51.438;-2.006;2024-03-25T11:46:40;99096.19;;;11.88;100.00
66668;BME280;57205;51.438;-2.006;2024-03-25T11:49:11;99091.16;;;11.87;100.00
66668;BME280;57205;51.438;-2.006;2024-03-25T11:51:37;99083.00;;;12.00;100.00
66668;BME280;57205;51.438;-2.006;2024-03-25T11:54:06;99083.78;;;12.01;100.00
66668;BME280;57205;51.438;-2.006;2024-03-25T11:56:40;99079.47;;;11.91;100.00
66668;BME280;57205;51.438;-2.006;2024-03-25T11:59:20;99073.44;;;11.77;100.00
66668;BME280;57205;51.438;-2.006;2024-03-25T12:15:09;99035.69;;;11.96;100.00
66668;BME280;57205;51.438;-2.006;2024-03-25T12:17:41;99033.81;;;12.05;100.00
66668;BME280;57205;51.438;-2.006;2024-03-25T12:20:23;99032.88;;;12.18;100.00
66668;BME280;57205;51.438;-2.006;2024-03-25T12:22:56;99030.53;;;12.25;100.00
66668;BME280;57205;51.438;-2.006;2024-03-25T12:25:23;99028.34;;;12.35;100.00
66668;BME280;57205;51.438;-2.006;2024-03-25T12:28:14;99020.63;;;12.42;100.00
66668;BME280;57205;51.438;-2.006;2024-03-25T12:30:51;99019.50;;;12.43;100.00
66668;BME280;57205;51.438;-2.006;2024-03-25T12:33:18;99017.94;;;12.51;100.00
66668;BME280;57205;51.438;-2.006;2024-03-25T12:35:48;99013.66;;;12.58;100.00
66668;BME280;57205;51.438;-2.006;2024-03-25T12:38:26;99010.66;;;12.60;100.00
66668;BME280;57205;51.438;-2.006;2024-03-25T12:41:00;99000.09;;;12.63;100.00
66668;BME280;57205;51.438;-2.006;2024-03-25T12:43:34;98994.72;;;12.81;100.00
66668;BME280;57205;51.438;-2.006;2024-03-25T12:46:02;98986.84;;;12.75;100.00
66668;BME280;57205;51.438;-2.006;2024-03-25T12:48:30;98989.97;;;12.86;100.00
66668;BME280;57205;51.438;-2.006;2024-03-25T12:50:55;98986.66;;;12.89;100.00
66668;BME280;57205;51.438;-2.006;2024-03-25T12:53:21;98979.22;;;12.95;100.00
66668;BME280;57205;51.438;-2.006;2024-03-25T12:55:46;98980.78;;;12.96;100.00
66668;BME280;57205;51.438;-2.006;2024-03-25T12:58:13;98975.75;;;13.03;100.00
66668;BME280;57205;51.438;-2.006;2024-03-25T13:00:40;98973.22;;;13.06;100.00
66668;BME280;57205;51.438;-2.006;2024-03-25T13:03:06;98971.31;;;13.07;100.00
66668;BME280;57205;51.438;-2.006;2024-03-25T13:05:33;98967.19;;;13.01;100.00
66668;BME280;57205;51.438;-2.006;2024-03-25T13:08:02;98967.19;;;13.01;100.00
66668;BME280;57205;51.438;-2.006;2024-03-25T13:10:28;98951.91;;;12.93;100.00
66668;BME280;57205;51.438;-2.006;2024-03-25T13:13:12;98951.25;;;12.96;100.00
66668;BME280;57205;51.438;-2.006;2024-03-25T13:15:38;98951.44;;;12.91;100.00
66668;BME280;57205;51.438;-2.006;2024-03-25T13:18:05;98941.31;;;12.88;100.00
66668;BME280;57205;51.438;-2.006;2024-03-25T13:20:30;98935.19;;;12.78;100.00
66668;BME280;57205;51.438;-2.006;2024-03-25T13:23:12;98934.72;;;12.76;100.00
66668;BME280;57205;51.438;-2.006;2024-03-25T13:25:37;98931.88;;;12.82;100.00
66668;BME280;57205;51.438;-2.006;2024-03-25T13:28:03;98931.53;;;12.92;100.00
66668;BME280;57205;51.438;-2.006;2024-03-25T13:30:31;98926.91;;;13.01;100.00
66668;BME280;57205;51.438;-2.006;2024-03-25T13:33:03;98923.94;;;13.11;100.00
66668;BME280;57205;51.438;-2.006;2024-03-25T13:35:30;98920.72;;;13.17;100.00
66668;BME280;57205;51.438;-2.006;2024-03-25T13:37:56;98911.25;;;13.20;100.00
66668;BME280;57205;51.438;-2.006;2024-03-25T13:40:21;98912.00;;;13.29;100.00
66668;BME280;57205;51.438;-2.006;2024-03-25T13:42:46;98907.38;;;13.38;100.00
66668;BME280;57205;51.438;-2.006;2024-03-25T13:45:13;98907.00;;;13.48;100.00
66668;BME280;57205;51.438;-2.006;2024-03-25T13:47:38;98907.47;;;13.50;100.00
66668;BME280;57205;51.438;-2.006;2024-03-25T13:50:05;98908.41;;;13.54;100.00
66668;BME280;57205;51.438;-2.006;2024-03-25T13:52:49;98895.13;;;13.49;100.00
66668;BME280;57205;51.438;-2.006;2024-03-25T13:55:15;98891.84;;;13.43;100.00
66668;BME280;57205;51.438;-2.006;2024-03-25T13:57:43;98889.34;;;13.38;100.00
66668;BME280;57205;51.438;-2.006;2024-03-25T14:00:11;98882.13;;;13.30;100.00
66668;BME280;57205;51.438;-2.006;2024-03-25T14:02:37;98882.13;;;13.30;100.00
66668;BME280;57205;51.438;-2.006;2024-03-25T14:05:05;98879.75;;;13.29;100.00
66668;BME280;57205;51.438;-2.006;2024-03-25T14:07:31;98878.66;;;13.30;100.00
66668;BME280;57205;51.438;-2.006;2024-03-25T14:10:15;98879.53;;;13.13;100.00
66668;BME280;57205;51.438;-2.006;2024-03-25T14:12:40;98879.56;;;13.05;100.00
66668;BME280;57205;51.438;-2.006;2024-03-25T14:15:07;98870.75;;;12.87;100.00
66668;BME280;57205;51.438;-2.006;2024-03-25T14:17:32;98873.59;;;12.91;100.00
66668;BME280;57205;51.438;-2.006;2024-03-25T14:19:58;98866.13;;;13.05;100.00
66668;BME280;57205;51.438;-2.006;2024-03-25T14:22:23;98868.81;;;13.05;100.00
66668;BME280;57205;51.438;-2.006;2024-03-25T14:24:49;98859.63;;;13.14;100.00
66668;BME280;57205;51.438;-2.006;2024-03-25T14:27:18;98867.00;;;13.17;100.00
66668;BME280;57205;51.438;-2.006;2024-03-25T14:29:44;98853.09;;;13.24;100.00
66668;BME280;57205;51.438;-2.006;2024-03-25T14:32:09;98861.34;;;13.19;100.00
66668;BME280;57205;51.438;-2.006;2024-03-25T14:34:35;98873.66;;;13.20;100.00
66668;BME280;57205;51.438;-2.006;2024-03-25T14:37:00;98847.94;;;13.10;100.00
66668;BME280;57205;51.438;-2.006;2024-03-25T14:39:27;98844.03;;;13.08;100.00
66668;BME280;57205;51.438;-2.006;2024-03-25T14:41:52;98849.56;;;13.03;100.00
66668;BME280;57205;51.438;-2.006;2024-03-25T14:47:39;98836.34;;;12.81;100.00
66668;BME280;57205;51.438;-2.006;2024-03-25T14:50:05;98820.47;;;12.67;100.00
66668;BME280;57205;51.438;-2.006;2024-03-25T14:52:30;98836.88;;;12.65;100.00
66668;BME280;57205;51.438;-2.006;2024-03-25T14:54:56;98815.44;;;12.57;100.00
66668;BME280;57205;51.438;-2.006;2024-03-25T14:57:49;98819.53;;;12.54;100.00
66668;BME280;57205;51.438;-2.006;2024-03-25T15:00:15;98810.09;;;12.57;100.00
66668;BME280;57205;51.438;-2.006;2024-03-25T15:02:40;98812.25;;;12.63;100.00
66668;BME280;57205;51.438;-2.006;2024-03-25T15:05:07;98810.69;;;12.62;100.00
66668;BME280;57205;51.438;-2.006;2024-03-25T15:07:34;98811.81;;;12.53;100.00
66668;BME280;57205;51.438;-2.006;2024-03-25T15:10:00;98797.47;;;12.49;100.00
66668;BME280;57205;51.438;-2.006;2024-03-25T15:12:25;98804.09;;;12.51;100.00
66668;BME280;57205;51.438;-2.006;2024-03-25T15:14:52;98800.66;;;12.42;100.00
66668;BME280;57205;51.438;-2.006;2024-03-25T15:17:17;98785.56;;;12.29;100.00
66668;BME280;57205;51.438;-2.006;2024-03-25T15:19:43;98779.53;;;12.32;100.00
66668;BME280;57205;51.438;-2.006;2024-03-25T15:22:08;98788.56;;;12.19;100.00
66668;BME280;57205;51.438;-2.006;2024-03-25T15:24:49;98780.06;;;12.09;100.00
66668;BME280;57205;51.438;-2.006;2024-03-25T15:27:18;98785.13;;;12.02;100.00
66668;BME280;57205;51.438;-2.006;2024-03-25T15:30:04;98788.16;;;12.00;100.00
66668;BME280;57205;51.438;-2.006;2024-03-25T15:32:31;98786.84;;;12.06;100.00
66668;BME280;57205;51.438;-2.006;2024-03-25T15:34:58;98788.16;;;12.00;100.00
66668;BME280;57205;51.438;-2.006;2024-03-25T15:37:46;98787.81;;;11.93;100.00
66668;BME280;57205;51.438;-2.006;2024-03-25T15:40:31;98778.53;;;11.82;100.00
66668;BME280;57205;51.438;-2.006;2024-03-25T15:49:16;98764.63;;;11.54;100.00
66668;BME280;57205;51.438;-2.006;2024-03-25T15:55:45;98759.28;;;11.37;100.00
66668;BME280;57205;51.438;-2.006;2024-03-25T19:17:17;98653.69;;;8.72;100.00
66668;BME280;57205;51.438;-2.006;2024-03-25T19:19:43;98649.94;;;8.73;100.00
66668;BME280;57205;51.438;-2.006;2024-03-25T19:22:08;98650.53;;;8.70;100.00
66668;BME280;57205;51.438;-2.006;2024-03-25T19:24:34;98648.97;;;8.69;100.00
66668;BME280;57205;51.438;-2.006;2024-03-25T19:27:05;98666.53;;;8.70;100.00
66668;BME280;57205;51.438;-2.006;2024-03-25T19:29:31;98658.06;;;8.68;100.00
66668;BME280;57205;51.438;-2.006;2024-03-25T19:47:39;98633.25;;;8.68;100.00
66668;BME280;57205;51.438;-2.006;2024-03-25T19:50:12;98640.97;;;8.69;100.00
66668;BME280;57205;51.438;-2.006;2024-03-25T19:58:44;98630.00;;;8.71;100.00
66668;BME280;57205;51.438;-2.006;2024-03-25T20:01:37;98630.50;;;8.73;100.00
66668;BME280;57205;51.438;-2.006;2024-03-25T20:33:28;98599.44;;;8.77;100.00
66668;BME280;57205;51.438;-2.006;2024-03-25T20:35:58;98590.69;;;8.76;100.00
66668;BME280;57205;51.438;-2.006;2024-03-25T20:48:15;98589.59;;;8.77;100.00
66668;BME280;57205;51.438;-2.006;2024-03-25T20:54:04;98586.63;;;8.79;100.00
66668;BME280;57205;51.438;-2.006;2024-03-25T20:56:29;98590.88;;;8.80;100.00
66668;BME280;57205;51.438;-2.006;2024-03-25T20:58:57;98586.63;;;8.79;100.00
66668;BME280;57205;51.438;-2.006;2024-03-25T21:04:45;98586.91;;;8.77;100.00
66668;BME280;57205;51.438;-2.006;2024-03-25T21:07:11;98580.03;;;8.76;100.00
66668;BME280;57205;51.438;-2.006;2024-03-25T21:09:36;98579.22;;;8.76;100.00
66668;BME280;57205;51.438;-2.006;2024-03-25T21:12:02;98575.28;;;8.73;100.00
66668;BME280;57205;51.438;-2.006;2024-03-25T21:17:49;98575.47;;;8.77;100.00
66668;BME280;57205;51.438;-2.006;2024-03-25T21:20:15;98568.56;;;8.76;100.00
66668;BME280;57205;51.438;-2.006;2024-03-25T21:26:04;98567.75;;;8.75;100.00
66668;BME280;57205;51.438;-2.006;2024-03-25T21:28:30;98561.94;;;8.73;100.00
66668;BME280;57205;51.438;-2.006;2024-03-25T21:30:55;98559.00;;;8.75;100.00
66668;BME280;57205;51.438;-2.006;2024-03-25T21:33:21;98562.56;;;8.70;100.00
66668;BME280;57205;51.438;-2.006;2024-03-25T21:39:10;98544.22;;;8.69;100.00
66668;BME280;57205;51.438;-2.006;2024-03-25T21:41:37;98546.25;;;8.72;100.00
66668;BME280;57205;51.438;-2.006;2024-03-25T21:44:25;98557.72;;;8.72;100.00
66668;BME280;57205;51.438;-2.006;2024-03-25T21:46:51;98544.22;;;8.69;100.00
66668;BME280;57205;51.438;-2.006;2024-03-25T21:49:16;98549.53;;;8.69;100.00
66668;BME280;57205;51.438;-2.006;2024-03-25T21:51:42;98544.69;;;8.71;100.00
66668;BME280;57205;51.438;-2.006;2024-03-25T21:57:31;98530.06;;;8.68;100.00
66668;BME280;57205;51.438;-2.006;2024-03-25T21:59:57;98542.03;;;8.71;100.00
66668;BME280;57205;51.438;-2.006;2024-03-25T22:02:23;98531.94;;;8.68;100.00
66668;BME280;57205;51.438;-2.006;2024-03-25T22:04:49;98538.06;;;8.68;100.00
66668;BME280;57205;51.438;-2.006;2024-03-25T22:07:14;98533.84;;;8.67;100.00
66668;BME280;57205;51.438;-2.006;2024-03-25T22:09:41;98530.69;;;8.65;100.00
66668;BME280;57205;51.438;-2.006;2024-03-25T22:15:19;98526.25;;;8.61;100.00
66668;BME280;57205;51.438;-2.006;2024-03-25T22:17:45;98525.47;;;8.60;100.00
66668;BME280;57205;51.438;-2.006;2024-03-25T22:23:33;98527.63;;;8.58;100.00
66668;BME280;57205;51.438;-2.006;2024-03-25T22:26:00;98519.47;;;8.55;100.00
66668;BME280;57205;51.438;-2.006;2024-03-25T22:29:00;98522.31;;;8.58;100.00
66668;BME280;57205;51.438;-2.006;2024-03-25T22:31:25;98519.47;;;8.55;100.00
66668;BME280;57205;51.438;-2.006;2024-03-25T22:33:52;98513.53;;;8.58;100.00
66668;BME280;57205;51.438;-2.006;2024-03-25T22:36:18;98512.25;;;8.55;100.00
66668;BME280;57205;51.438;-2.006;2024-03-25T22:41:56;98508.91;;;8.50;100.00
66668;BME280;57205;51.438;-2.006;2024-03-25T22:47:24;98498.56;;;8.48;100.00
66668;BME280;57205;51.438;-2.006;2024-03-25T22:49:53;98508.31;;;8.53;100.00
66668;BME280;57205;51.438;-2.006;2024-03-25T22:52:19;98498.88;;;8.47;100.00
66668;BME280;57205;51.438;-2.006;2024-03-25T22:58:10;98495.09;;;8.48;100.00
66668;BME280;57205;51.438;-2.006;2024-03-25T23:00:36;98490.88;;;8.47;100.00
66668;BME280;57205;51.438;-2.006;2024-03-25T23:03:03;98486.31;;;8.47;100.00
66668;BME280;57205;51.438;-2.006;2024-03-25T23:08:51;98475.66;;;8.47;100.00
66668;BME280;57205;51.438;-2.006;2024-03-25T23:11:17;98469.56;;;8.47;100.00
66668;BME280;57205;51.438;-2.006;2024-03-25T23:13:43;98472.81;;;8.44;100.00
66668;BME280;57205;51.438;-2.006;2024-03-25T23:16:12;98477.38;;;8.43;100.00
66668;BME280;57205;51.438;-2.006;2024-03-25T23:18:38;98474.50;;;8.40;100.00
66668;BME280;57205;51.438;-2.006;2024-03-25T23:24:25;98464.28;;;8.33;100.00
66668;BME280;57205;51.438;-2.006;2024-03-25T23:26:51;98469.59;;;8.33;100.00
66668;BME280;57205;51.438;-2.006;2024-03-25T23:29:23;98462.72;;;8.32;100.00
66668;BME280;57205;51.438;-2.006;2024-03-25T23:32:19;98464.28;;;8.33;100.00
66668;BME280;57205;51.438;-2.006;2024-03-25T23:34:56;98468.63;;;8.29;100.00
66668;BME280;57205;51.438;-2.006;2024-03-25T23:37:24;98460.13;;;8.27;100.00
66668;BME280;57205;51.438;-2.006;2024-03-25T23:40:15;98463.69;;;8.23;100.00
66668;BME280;57205;51.438;-2.006;2024-03-25T23:42:42;98460.34;;;8.17;100.00
66668;BME280;57205;51.438;-2.006;2024-03-25T23:45:10;98463.03;;;8.17;100.00
66668;BME280;57205;51.438;-2.006;2024-03-25T23:47:37;98457.78;;;8.12;100.00
66668;BME280;57205;51.438;-2.006;2024-03-25T23:53:24;98456.13;;;8.03;100.00
66668;BME280;57205;51.438;-2.006;2024-03-25T23:55:50;98459.09;;;8.01;100.00
